sensor_id;sensor_type;location;lat;lon;timestamp;temperature;humidity
7000;DHT22;3540;53.242;10.408;2024-01-15T00:02:17;1.70;99.90
7000;DHT22;3540;53.242;10.408;2024-01-15T00:04:42;1.70;99.90
7000;DHT22;3540;53.242;10.408;2024-01-15T00:07:08;1.70;99.90
7000;DHT22;3540;53.242;10.408;2024-01-15T00:09:35;1.70;99.90
7000;DHT22;3540;53.242;10.408;2024-01-15T00:12:01;1.60;99.90
7000;DHT22;3540;53.242;10.408;2024-01-15T00:14:27;1.60;99.90
7000;DHT22;3540;53.242;10.408;2024-01-15T00:16:53;1.60;99.90
7000;DHT22;3540;53.242;10.408;2024-01-15T00:19:21;1.60;99.90
7000;DHT22;3540;53.242;10.408;2024-01-15T00:21:47;1.50;99.90
7000;DHT22;3540;53.242;10.408;2024-01-15T00:24:13;1.50;99.90
7000;DHT22;3540;53.242;10.408;2024-01-15T00:26:39;1.50;99.90
7000;DHT22;3540;53.242;10.408;2024-01-15T00:29:07;1.50;99.90
7000;DHT22;3540;53.242;10.408;2024-01-15T00:31:32;1.60;99.90
7000;DHT22;3540;53.242;10.408;2024-01-15T00:33:58;1.60;99.90
7000;DHT22;3540;53.242;10.408;2024-01-15T00:36:24;1.60;99.90
7000;DHT22;3540;53.242;10.408;2024-01-15T00:38:49;1.70;99.90
7000;DHT22;3540;53.242;10.408;2024-01-15T00:41:15;1.70;99.90
7000;DHT22;3540;53.242;10.408;2024-01-15T00:43:41;1.80;99.90
7000;DHT22;3540;53.242;10.408;2024-01-15T00:46:06;1.80;99.90
7000;DHT22;3540;53.242;10.408;2024-01-15T00:48:32;1.80;99.90
7000;DHT22;3540;53.242;10.408;2024-01-15T00:50:58;1.80;99.90
7000;DHT22;3540;53.242;10.408;2024-01-15T00:53:25;1.80;99.90
7000;DHT22;3540;53.242;10.408;2024-01-15T00:55:51;1.60;99.90
7000;DHT22;3540;53.242;10.408;2024-01-15T00:58:16;1.60;99.90
7000;DHT22;3540;53.242;10.408;2024-01-15T01:00:42;1.50;99.90
7000;DHT22;3540;53.242;10.408;2024-01-15T01:03:08;1.50;99.90
7000;DHT22;3540;53.242;10.408;2024-01-15T01:05:34;1.50;99.90
7000;DHT22;3540;53.242;10.408;2024-01-15T01:08:00;1.60;99.90
7000;DHT22;3540;53.242;10.408;2024-01-15T01:10:26;1.60;99.90
7000;DHT22;3540;53.242;10.408;2024-01-15T01:12:52;1.60;99.90
7000;DHT22;3540;53.242;10.408;2024-01-15T01:15:17;1.60;99.90
7000;DHT22;3540;53.242;10.408;2024-01-15T01:17:43;1.60;99.90
7000;DHT22;3540;53.242;10.408;2024-01-15T01:20:09;1.60;99.90
7000;DHT22;3540;53.242;10.408;2024-01-15T01:22:35;1.70;99.90
7000;DHT22;3540;53.242;10.408;2024-01-15T01:25:01;1.70;99.90
7000;DHT22;3540;53.242;10.408;2024-01-15T01:27:27;1.80;99.90
7000;DHT22;3540;53.242;10.408;2024-01-15T01:29:52;1.80;99.90
7000;DHT22;3540;53.242;10.408;2024-01-15T01:32:18;1.90;99.90
7000;DHT22;3540;53.242;10.408;2024-01-15T01:34:44;1.90;99.90
7000;DHT22;3540;53.242;10.408;2024-01-15T01:37:12;2.00;99.90
7000;DHT22;3540;53.242;10.408;2024-01-15T01:39:39;2.00;99.90
7000;DHT22;3540;53.242;10.408;2024-01-15T01:42:05;2.00;99.90
7000;DHT22;3540;53.242;10.408;2024-01-15T01:44:30;2.00;99.90
7000;DHT22;3540;53.242;10.408;2024-01-15T01:46:57;1.90;99.90
7000;DHT22;3540;53.242;10.408;2024-01-15T01:49:23;1.90;99.90
7000;DHT22;3540;53.242;10.408;2024-01-15T01:51:50;1.90;99.90
7000;DHT22;3540;53.242;10.408;2024-01-15T01:54:16;1.80;99.90
7000;DHT22;3540;53.242;10.408;2024-01-15T01:56:43;1.80;99.90
7000;DHT22;3540;53.242;10.408;2024-01-15T01:59:10;1.70;99.90
7000;DHT22;3540;53.242;10.408;2024-01-15T02:01:36;1.70;99.90
7000;DHT22;3540;53.242;10.408;2024-01-15T02:04:03;1.70;99.90
7000;DHT22;3540;53.242;10.408;2024-01-15T02:06:29;1.70;99.90
7000;DHT22;3540;53.242;10.408;2024-01-15T02:08:55;1.70;99.90
7000;DHT22;3540;53.242;10.408;2024-01-15T02:11:21;1.70;99.90
7000;DHT22;3540;53.242;10.408;2024-01-15T02:13:47;1.60;99.90
7000;DHT22;3540;53.242;10.408;2024-01-15T02:16:12;1.70;99.90
7000;DHT22;3540;53.242;10.408;2024-01-15T02:18:42;1.70;99.90
7000;DHT22;3540;53.242;10.408;2024-01-15T02:21:09;1.70;99.90
7000;DHT22;3540;53.242;10.408;2024-01-15T02:23:34;1.70;99.90
7000;DHT22;3540;53.242;10.408;2024-01-15T02:26:00;1.60;99.90
7000;DHT22;3540;53.242;10.408;2024-01-15T02:28:26;1.60;99.90
7000;DHT22;3540;53.242;10.408;2024-01-15T02:30:52;1.50;99.90
7000;DHT22;3540;53.242;10.408;2024-01-15T02:33:17;1.40;99.90
7000;DHT22;3540;53.242;10.408;2024-01-15T02:35:43;1.50;99.90
7000;DHT22;3540;53.242;10.408;2024-01-15T02:38:09;1.50;99.90
7000;DHT22;3540;53.242;10.408;2024-01-15T02:40:35;1.40;99.90
7000;DHT22;3540;53.242;10.408;2024-01-15T02:43:01;1.40;99.90
7000;DHT22;3540;53.242;10.408;2024-01-15T02:45:27;1.30;99.90
7000;DHT22;3540;53.242;10.408;2024-01-15T02:47:52;1.30;99.90
7000;DHT22;3540;53.242;10.408;2024-01-15T02:50:18;1.40;99.90
7000;DHT22;3540;53.242;10.408;2024-01-15T02:52:44;1.40;99.90
7000;DHT22;3540;53.242;10.408;2024-01-15T02:55:09;1.40;99.90
7000;DHT22;3540;53.242;10.408;2024-01-15T02:57:35;1.50;99.90
7000;DHT22;3540;53.242;10.408;2024-01-15T03:00:01;1.50;99.90
7000;DHT22;3540;53.242;10.408;2024-01-15T03:02:26;1.50;99.90
7000;DHT22;3540;53.242;10.408;2024-01-15T03:04:52;1.60;99.90
7000;DHT22;3540;53.242;10.408;2024-01-15T03:07:18;1.60;99.90
7000;DHT22;3540;53.242;10.408;2024-01-15T03:09:43;1.50;99.90
7000;DHT22;3540;53.242;10.408;2024-01-15T03:12:09;1.50;99.90
7000;DHT22;3540;53.242;10.408;2024-01-15T03:14:35;1.50;99.90
7000;DHT22;3540;53.242;10.408;2024-01-15T03:17:01;1.50;99.90
7000;DHT22;3540;53.242;10.408;2024-01-15T03:19:27;1.50;99.90
7000;DHT22;3540;53.242;10.408;2024-01-15T03:21:52;1.50;99.90
7000;DHT22;3540;53.242;10.408;2024-01-15T03:24:18;1.50;99.90
7000;DHT22;3540;53.242;10.408;2024-01-15T03:26:44;1.50;99.90
7000;DHT22;3540;53.242;10.408;2024-01-15T03:29:09;1.40;99.90
7000;DHT22;3540;53.242;10.408;2024-01-15T03:31:35;1.30;99.90
7000;DHT22;3540;53.242;10.408;2024-01-15T03:34:00;1.30;99.90
7000;DHT22;3540;53.242;10.408;2024-01-15T03:36:26;1.20;99.90
7000;DHT22;3540;53.242;10.408;2024-01-15T03:38:52;1.20;99.90
7000;DHT22;3540;53.242;10.408;2024-01-15T03:41:17;1.20;99.90
7000;DHT22;3540;53.242;10.408;2024-01-15T03:43:43;1.20;99.90
7000;DHT22;3540;53.242;10.408;2024-01-15T03:46:09;1.20;99.90
7000;DHT22;3540;53.242;10.408;2024-01-15T03:48:34;1.20;99.90
7000;DHT22;3540;53.242;10.408;2024-01-15T03:51:00;1.20;99.90
7000;DHT22;3540;53.242;10.408;2024-01-15T03:53:26;1.20;99.90
7000;DHT22;3540;53.242;10.408;2024-01-15T03:55:51;1.20;99.90
7000;DHT22;3540;53.242;10.408;2024-01-15T03:58:17;1.30;99.90
7000;DHT22;3540;53.242;10.408;2024-01-15T04:00:43;1.30;99.90
7000;DHT22;3540;53.242;10.408;2024-01-15T04:03:09;1.40;99.90
7000;DHT22;3540;53.242;10.408;2024-01-15T04:05:34;1.40;99.90
7000;DHT22;3540;53.242;10.408;2024-01-15T04:08:00;1.40;99.90
7000;DHT22;3540;53.242;10.408;2024-01-15T04:10:26;1.40;99.90
7000;DHT22;3540;53.242;10.408;2024-01-15T04:12:52;1.40;99.90
7000;DHT22;3540;53.242;10.408;2024-01-15T04:15:17;1.50;99.90
7000;DHT22;3540;53.242;10.408;2024-01-15T04:17:43;1.50;99.90
7000;DHT22;3540;53.242;10.408;2024-01-15T04:20:09;1.60;99.90
7000;DHT22;3540;53.242;10.408;2024-01-15T04:22:35;1.70;99.90
7000;DHT22;3540;53.242;10.408;2024-01-15T04:25:01;1.60;99.90
7000;DHT22;3540;53.242;10.408;2024-01-15T04:27:27;1.60;99.90
7000;DHT22;3540;53.242;10.408;2024-01-15T04:29:53;1.70;99.90
7000;DHT22;3540;53.242;10.408;2024-01-15T04:32:19;1.70;99.90
7000;DHT22;3540;53.242;10.408;2024-01-15T04:34:44;1.70;99.90
7000;DHT22;3540;53.242;10.408;2024-01-15T04:37:10;1.70;99.90
7000;DHT22;3540;53.242;10.408;2024-01-15T04:39:36;1.70;99.90
7000;DHT22;3540;53.242;10.408;2024-01-15T04:42:01;1.70;99.90
7000;DHT22;3540;53.242;10.408;2024-01-15T04:44:27;1.70;99.90
7000;DHT22;3540;53.242;10.408;2024-01-15T04:46:53;1.70;99.90
7000;DHT22;3540;53.242;10.408;2024-01-15T04:49:18;1.60;99.90
7000;DHT22;3540;53.242;10.408;2024-01-15T04:51:44;1.60;99.90
7000;DHT22;3540;53.242;10.408;2024-01-15T04:54:10;1.70;99.90
7000;DHT22;3540;53.242;10.408;2024-01-15T04:56:36;1.70;99.90
7000;DHT22;3540;53.242;10.408;2024-01-15T04:59:02;1.70;99.90
7000;DHT22;3540;53.242;10.408;2024-01-15T05:01:31;1.70;99.90
7000;DHT22;3540;53.242;10.408;2024-01-15T05:03:58;1.70;99.90
7000;DHT22;3540;53.242;10.408;2024-01-15T05:06:23;1.70;99.90
7000;DHT22;3540;53.242;10.408;2024-01-15T05:08:49;1.70;99.90
7000;DHT22;3540;53.242;10.408;2024-01-15T05:11:15;1.80;99.90
7000;DHT22;3540;53.242;10.408;2024-01-15T05:13:41;1.70;99.90
7000;DHT22;3540;53.242;10.408;2024-01-15T05:16:07;1.70;99.90
7000;DHT22;3540;53.242;10.408;2024-01-15T05:18:32;1.70;99.90
7000;DHT22;3540;53.242;10.408;2024-01-15T05:20:58;1.60;99.90
7000;DHT22;3540;53.242;10.408;2024-01-15T05:23:24;1.60;99.90
7000;DHT22;3540;53.242;10.408;2024-01-15T05:25:50;1.60;99.90
7000;DHT22;3540;53.242;10.408;2024-01-15T05:28:16;1.60;99.90
7000;DHT22;3540;53.242;10.408;2024-01-15T05:30:41;1.60;99.90
7000;DHT22;3540;53.242;10.408;2024-01-15T05:33:07;1.70;99.90
7000;DHT22;3540;53.242;10.408;2024-01-15T05:35:34;1.70;99.90
7000;DHT22;3540;53.242;10.408;2024-01-15T05:37:59;1.60;99.90
7000;DHT22;3540;53.242;10.408;2024-01-15T05:40:25;1.60;99.90
7000;DHT22;3540;53.242;10.408;2024-01-15T05:42:51;1.60;99.90
7000;DHT22;3540;53.242;10.408;2024-01-15T05:45:17;1.60;99.90
7000;DHT22;3540;53.242;10.408;2024-01-15T05:47:42;1.60;99.90
7000;DHT22;3540;53.242;10.408;2024-01-15T05:50:10;1.60;99.90
7000;DHT22;3540;53.242;10.408;2024-01-15T05:52:36;1.60;99.90
7000;DHT22;3540;53.242;10.408;2024-01-15T05:55:01;1.60;99.90
7000;DHT22;3540;53.242;10.408;2024-01-15T05:57:27;1.60;99.90
7000;DHT22;3540;53.242;10.408;2024-01-15T05:59:53;1.70;99.90
7000;DHT22;3540;53.242;10.408;2024-01-15T06:02:19;1.70;99.90
7000;DHT22;3540;53.242;10.408;2024-01-15T06:04:45;1.70;99.90
7000;DHT22;3540;53.242;10.408;2024-01-15T06:07:10;1.70;99.90
7000;DHT22;3540;53.242;10.408;2024-01-15T06:09:36;1.70;99.90
7000;DHT22;3540;53.242;10.408;2024-01-15T06:12:02;1.80;99.90
7000;DHT22;3540;53.242;10.408;2024-01-15T06:14:28;1.70;99.90
7000;DHT22;3540;53.242;10.408;2024-01-15T06:16:53;1.70;99.90
7000;DHT22;3540;53.242;10.408;2024-01-15T06:19:19;1.70;99.90
7000;DHT22;3540;53.242;10.408;2024-01-15T06:21:44;1.80;99.90
7000;DHT22;3540;53.242;10.408;2024-01-15T06:24:10;1.80;99.90
7000;DHT22;3540;53.242;10.408;2024-01-15T06:26:36;1.80;99.90
7000;DHT22;3540;53.242;10.408;2024-01-15T06:29:02;1.80;99.90
7000;DHT22;3540;53.242;10.408;2024-01-15T06:31:28;1.80;99.90
7000;DHT22;3540;53.242;10.408;2024-01-15T06:33:55;1.80;99.90
7000;DHT22;3540;53.242;10.408;2024-01-15T06:36:21;1.80;99.90
7000;DHT22;3540;53.242;10.408;2024-01-15T06:38:47;1.90;99.90
7000;DHT22;3540;53.242;10.408;2024-01-15T06:41:13;1.90;99.90
7000;DHT22;3540;53.242;10.408;2024-01-15T06:43:38;1.90;99.90
7000;DHT22;3540;53.242;10.408;2024-01-15T06:46:04;1.90;99.90
7000;DHT22;3540;53.242;10.408;2024-01-15T06:48:30;2.00;99.90
7000;DHT22;3540;53.242;10.408;2024-01-15T06:50:55;2.00;99.90
7000;DHT22;3540;53.242;10.408;2024-01-15T06:53:21;2.00;99.90
7000;DHT22;3540;53.242;10.408;2024-01-15T06:55:48;2.00;99.90
7000;DHT22;3540;53.242;10.408;2024-01-15T06:58:14;2.00;99.90
7000;DHT22;3540;53.242;10.408;2024-01-15T07:00:40;2.00;99.90
7000;DHT22;3540;53.242;10.408;2024-01-15T07:03:06;1.90;99.90
7000;DHT22;3540;53.242;10.408;2024-01-15T07:05:31;1.80;99.90
7000;DHT22;3540;53.242;10.408;2024-01-15T07:07:57;1.80;99.90
7000;DHT22;3540;53.242;10.408;2024-01-15T07:10:23;1.80;99.90
7000;DHT22;3540;53.242;10.408;2024-01-15T07:12:48;1.80;99.90
7000;DHT22;3540;53.242;10.408;2024-01-15T07:15:15;1.80;99.90
7000;DHT22;3540;53.242;10.408;2024-01-15T07:17:41;1.80;99.90
7000;DHT22;3540;53.242;10.408;2024-01-15T07:20:08;1.70;99.90
7000;DHT22;3540;53.242;10.408;2024-01-15T07:22:37;1.70;99.90
7000;DHT22;3540;53.242;10.408;2024-01-15T07:25:03;1.70;99.90
7000;DHT22;3540;53.242;10.408;2024-01-15T07:27:33;1.80;99.90
7000;DHT22;3540;53.242;10.408;2024-01-15T07:29:58;1.80;99.90
7000;DHT22;3540;53.242;10.408;2024-01-15T07:32:24;1.80;99.90
7000;DHT22;3540;53.242;10.408;2024-01-15T07:34:50;1.80;99.90
7000;DHT22;3540;53.242;10.408;2024-01-15T07:37:15;1.80;99.90
7000;DHT22;3540;53.242;10.408;2024-01-15T07:39:41;1.80;99.90
7000;DHT22;3540;53.242;10.408;2024-01-15T07:42:07;1.80;99.90
7000;DHT22;3540;53.242;10.408;2024-01-15T07:44:33;1.80;99.90
7000;DHT22;3540;53.242;10.408;2024-01-15T07:46:59;1.80;99.90
7000;DHT22;3540;53.242;10.408;2024-01-15T07:49:25;1.80;99.90
7000;DHT22;3540;53.242;10.408;2024-01-15T07:51:50;1.80;99.90
7000;DHT22;3540;53.242;10.408;2024-01-15T07:54:16;1.80;99.90
7000;DHT22;3540;53.242;10.408;2024-01-15T07:56:57;1.80;99.90
7000;DHT22;3540;53.242;10.408;2024-01-15T07:59:23;1.70;99.90
7000;DHT22;3540;53.242;10.408;2024-01-15T08:01:50;1.80;99.90
7000;DHT22;3540;53.242;10.408;2024-01-15T08:04:15;1.80;99.90
7000;DHT22;3540;53.242;10.408;2024-01-15T08:06:41;1.80;99.90
7000;DHT22;3540;53.242;10.408;2024-01-15T08:09:06;1.80;99.90
7000;DHT22;3540;53.242;10.408;2024-01-15T08:11:34;1.80;99.90
7000;DHT22;3540;53.242;10.408;2024-01-15T08:14:00;1.80;99.90
7000;DHT22;3540;53.242;10.408;2024-01-15T08:16:25;1.80;99.90
7000;DHT22;3540;53.242;10.408;2024-01-15T08:18:53;1.80;99.90
7000;DHT22;3540;53.242;10.408;2024-01-15T08:21:18;1.70;99.90
7000;DHT22;3540;53.242;10.408;2024-01-15T08:23:44;1.70;99.90
7000;DHT22;3540;53.242;10.408;2024-01-15T08:26:10;1.70;99.90
7000;DHT22;3540;53.242;10.408;2024-01-15T08:28:36;1.70;99.90
7000;DHT22;3540;53.242;10.408;2024-01-15T08:31:02;1.60;99.90
7000;DHT22;3540;53.242;10.408;2024-01-15T08:33:28;1.60;99.90
7000;DHT22;3540;53.242;10.408;2024-01-15T08:35:54;1.60;99.90
7000;DHT22;3540;53.242;10.408;2024-01-15T08:38:20;1.60;99.90
7000;DHT22;3540;53.242;10.408;2024-01-15T08:40:46;1.60;99.90
7000;DHT22;3540;53.242;10.408;2024-01-15T08:43:12;1.60;99.90
7000;DHT22;3540;53.242;10.408;2024-01-15T08:45:38;1.60;99.90
7000;DHT22;3540;53.242;10.408;2024-01-15T08:48:03;1.60;99.90
7000;DHT22;3540;53.242;10.408;2024-01-15T08:50:30;1.50;99.90
7000;DHT22;3540;53.242;10.408;2024-01-15T08:52:57;1.50;99.90
7000;DHT22;3540;53.242;10.408;2024-01-15T08:55:23;1.50;99.90
7000;DHT22;3540;53.242;10.408;2024-01-15T08:57:49;1.60;99.90
7000;DHT22;3540;53.242;10.408;2024-01-15T09:00:15;1.60;99.90
7000;DHT22;3540;53.242;10.408;2024-01-15T09:02:42;1.60;99.90
7000;DHT22;3540;53.242;10.408;2024-01-15T09:05:07;1.50;99.90
7000;DHT22;3540;53.242;10.408;2024-01-15T09:07:33;1.60;99.90
7000;DHT22;3540;53.242;10.408;2024-01-15T09:09:59;1.60;99.90
7000;DHT22;3540;53.242;10.408;2024-01-15T09:12:25;1.60;99.90
7000;DHT22;3540;53.242;10.408;2024-01-15T09:14:51;1.50;99.90
7000;DHT22;3540;53.242;10.408;2024-01-15T09:17:17;1.60;99.90
7000;DHT22;3540;53.242;10.408;2024-01-15T09:19:43;1.50;99.90
7000;DHT22;3540;53.242;10.408;2024-01-15T09:22:09;1.50;99.90
7000;DHT22;3540;53.242;10.408;2024-01-15T09:24:35;1.40;99.90
7000;DHT22;3540;53.242;10.408;2024-01-15T09:27:01;1.50;99.90
7000;DHT22;3540;53.242;10.408;2024-01-15T09:29:27;1.50;99.90
7000;DHT22;3540;53.242;10.408;2024-01-15T09:31:53;1.50;99.90
7000;DHT22;3540;53.242;10.408;2024-01-15T09:34:19;1.60;99.90
7000;DHT22;3540;53.242;10.408;2024-01-15T09:36:44;1.60;99.90
7000;DHT22;3540;53.242;10.408;2024-01-15T09:39:10;1.60;99.90
7000;DHT22;3540;53.242;10.408;2024-01-15T09:41:37;1.60;99.90
7000;DHT22;3540;53.242;10.408;2024-01-15T09:44:06;1.60;99.90
7000;DHT22;3540;53.242;10.408;2024-01-15T09:46:34;1.70;99.90
7000;DHT22;3540;53.242;10.408;2024-01-15T09:49:00;1.70;99.90
7000;DHT22;3540;53.242;10.408;2024-01-15T09:51:29;1.80;99.90
7000;DHT22;3540;53.242;10.408;2024-01-15T09:53:57;1.70;99.90
7000;DHT22;3540;53.242;10.408;2024-01-15T09:56:23;1.80;99.90
7000;DHT22;3540;53.242;10.408;2024-01-15T09:58:49;1.80;99.90
7000;DHT22;3540;53.242;10.408;2024-01-15T10:01:17;1.90;99.90
7000;DHT22;3540;53.242;10.408;2024-01-15T10:03:43;2.00;99.90
7000;DHT22;3540;53.242;10.408;2024-01-15T10:06:09;2.00;99.90
7000;DHT22;3540;53.242;10.408;2024-01-15T10:08:37;2.10;99.90
7000;DHT22;3540;53.242;10.408;2024-01-15T10:11:02;2.20;99.90
7000;DHT22;3540;53.242;10.408;2024-01-15T10:13:30;2.20;99.90
7000;DHT22;3540;53.242;10.408;2024-01-15T10:15:56;2.20;99.90
7000;DHT22;3540;53.242;10.408;2024-01-15T10:18:23;2.20;99.90
7000;DHT22;3540;53.242;10.408;2024-01-15T10:20:49;2.10;99.90
7000;DHT22;3540;53.242;10.408;2024-01-15T10:23:15;2.10;99.90
7000;DHT22;3540;53.242;10.408;2024-01-15T10:25:42;2.00;99.90
7000;DHT22;3540;53.242;10.408;2024-01-15T10:28:08;2.00;99.90
7000;DHT22;3540;53.242;10.408;2024-01-15T10:30:35;2.00;99.90
7000;DHT22;3540;53.242;10.408;2024-01-15T10:33:02;2.00;99.90
7000;DHT22;3540;53.242;10.408;2024-01-15T10:35:33;1.90;99.90
7000;DHT22;3540;53.242;10.408;2024-01-15T10:38:02;2.00;99.90
7000;DHT22;3540;53.242;10.408;2024-01-15T10:40:28;2.00;99.90
7000;DHT22;3540;53.242;10.408;2024-01-15T10:42:54;1.90;99.90
7000;DHT22;3540;53.242;10.408;2024-01-15T10:45:20;1.90;99.90
7000;DHT22;3540;53.242;10.408;2024-01-15T10:47:46;1.80;99.90
7000;DHT22;3540;53.242;10.408;2024-01-15T10:50:12;1.80;99.90
7000;DHT22;3540;53.242;10.408;2024-01-15T10:52:39;1.80;99.90
7000;DHT22;3540;53.242;10.408;2024-01-15T10:55:07;1.90;99.90
7000;DHT22;3540;53.242;10.408;2024-01-15T10:57:38;1.90;99.90
7000;DHT22;3540;53.242;10.408;2024-01-15T11:00:06;1.80;99.90
7000;DHT22;3540;53.242;10.408;2024-01-15T11:02:36;1.70;99.90
7000;DHT22;3540;53.242;10.408;2024-01-15T11:05:02;1.60;99.90
7000;DHT22;3540;53.242;10.408;2024-01-15T11:07:30;1.50;99.90
7000;DHT22;3540;53.242;10.408;2024-01-15T11:09:56;1.50;99.90
7000;DHT22;3540;53.242;10.408;2024-01-15T11:12:24;1.50;99.90
7000;DHT22;3540;53.242;10.408;2024-01-15T11:14:50;1.40;99.90
7000;DHT22;3540;53.242;10.408;2024-01-15T11:17:17;1.30;99.90
7000;DHT22;3540;53.242;10.408;2024-01-15T11:19:47;1.40;99.90
7000;DHT22;3540;53.242;10.408;2024-01-15T11:25:02;1.40;99.90
7000;DHT22;3540;53.242;10.408;2024-01-15T11:27:40;1.40;99.90
7000;DHT22;3540;53.242;10.408;2024-01-15T11:30:10;1.40;99.90
7000;DHT22;3540;53.242;10.408;2024-01-15T11:32:36;1.40;99.90
7000;DHT22;3540;53.242;10.408;2024-01-15T11:35:02;1.40;99.90
7000;DHT22;3540;53.242;10.408;2024-01-15T11:40:21;1.20;99.90
7000;DHT22;3540;53.242;10.408;2024-01-15T11:42:48;1.10;99.90
7000;DHT22;3540;53.242;10.408;2024-01-15T11:45:18;1.10;99.90
7000;DHT22;3540;53.242;10.408;2024-01-15T11:48:15;1.10;99.90
7000;DHT22;3540;53.242;10.408;2024-01-15T11:50:45;1.10;99.90
7000;DHT22;3540;53.242;10.408;2024-01-15T11:53:27;1.20;99.90
7000;DHT22;3540;53.242;10.408;2024-01-15T11:55:58;1.20;99.90
7000;DHT22;3540;53.242;10.408;2024-01-15T11:58:23;1.20;99.90
7000;DHT22;3540;53.242;10.408;2024-01-15T12:00:50;1.20;99.90
7000;DHT22;3540;53.242;10.408;2024-01-15T12:03:16;1.30;99.90
7000;DHT22;3540;53.242;10.408;2024-01-15T12:05:42;1.30;99.90
7000;DHT22;3540;53.242;10.408;2024-01-15T12:08:08;1.20;99.90
7000;DHT22;3540;53.242;10.408;2024-01-15T12:10:37;1.10;99.90
7000;DHT22;3540;53.242;10.408;2024-01-15T12:13:16;1.10;99.90
7000;DHT22;3540;53.242;10.408;2024-01-15T12:15:44;1.10;99.90
7000;DHT22;3540;53.242;10.408;2024-01-15T12:18:12;1.10;99.90
7000;DHT22;3540;53.242;10.408;2024-01-15T12:20:39;1.00;99.90
7000;DHT22;3540;53.242;10.408;2024-01-15T12:23:04;1.10;99.90
7000;DHT22;3540;53.242;10.408;2024-01-15T12:25:31;1.10;99.90
7000;DHT22;3540;53.242;10.408;2024-01-15T12:27:58;1.10;99.90
7000;DHT22;3540;53.242;10.408;2024-01-15T12:30:29;1.10;99.90
7000;DHT22;3540;53.242;10.408;2024-01-15T12:32:55;1.20;99.90
7000;DHT22;3540;53.242;10.408;2024-01-15T12:35:21;1.10;99.90
7000;DHT22;3540;53.242;10.408;2024-01-15T12:37:47;1.10;99.90
7000;DHT22;3540;53.242;10.408;2024-01-15T12:40:13;1.10;99.90
7000;DHT22;3540;53.242;10.408;2024-01-15T12:42:40;1.10;99.90
7000;DHT22;3540;53.242;10.408;2024-01-15T12:45:07;1.00;99.90
7000;DHT22;3540;53.242;10.408;2024-01-15T12:47:33;1.10;99.90
7000;DHT22;3540;53.242;10.408;2024-01-15T12:49:59;1.20;99.90
7000;DHT22;3540;53.242;10.408;2024-01-15T12:52:27;1.30;99.90
7000;DHT22;3540;53.242;10.408;2024-01-15T12:54:53;1.30;99.90
7000;DHT22;3540;53.242;10.408;2024-01-15T12:57:19;1.30;99.90
7000;DHT22;3540;53.242;10.408;2024-01-15T12:59:45;1.20;99.90
7000;DHT22;3540;53.242;10.408;2024-01-15T13:02:12;1.20;99.90
7000;DHT22;3540;53.242;10.408;2024-01-15T13:04:38;1.00;99.90
7000;DHT22;3540;53.242;10.408;2024-01-15T13:07:04;1.00;99.90
7000;DHT22;3540;53.242;10.408;2024-01-15T13:09:30;1.00;99.90
7000;DHT22;3540;53.242;10.408;2024-01-15T13:11:56;1.00;99.90
7000;DHT22;3540;53.242;10.408;2024-01-15T13:14:21;1.00;99.90
7000;DHT22;3540;53.242;10.408;2024-01-15T13:16:47;1.10;99.90
7000;DHT22;3540;53.242;10.408;2024-01-15T13:19:12;1.00;99.90
7000;DHT22;3540;53.242;10.408;2024-01-15T13:21:41;1.00;99.90
7000;DHT22;3540;53.242;10.408;2024-01-15T13:24:07;0.90;99.90
7000;DHT22;3540;53.242;10.408;2024-01-15T13:26:33;1.00;99.90
7000;DHT22;3540;53.242;10.408;2024-01-15T13:29:08;1.10;99.90
7000;DHT22;3540;53.242;10.408;2024-01-15T13:31:34;1.10;99.90
7000;DHT22;3540;53.242;10.408;2024-01-15T13:33:59;1.10;99.90
7000;DHT22;3540;53.242;10.408;2024-01-15T13:36:26;1.10;99.90
7000;DHT22;3540;53.242;10.408;2024-01-15T13:38:52;1.20;99.90
7000;DHT22;3540;53.242;10.408;2024-01-15T13:41:19;1.20;99.90
7000;DHT22;3540;53.242;10.408;2024-01-15T13:43:49;1.20;99.90
7000;DHT22;3540;53.242;10.408;2024-01-15T13:46:16;1.20;99.90
7000;DHT22;3540;53.242;10.408;2024-01-15T13:48:43;1.20;99.90
7000;DHT22;3540;53.242;10.408;2024-01-15T13:51:08;1.20;99.90
7000;DHT22;3540;53.242;10.408;2024-01-15T13:53:34;1.10;99.90
7000;DHT22;3540;53.242;10.408;2024-01-15T13:56:00;1.10;99.90
7000;DHT22;3540;53.242;10.408;2024-01-15T13:58:26;1.20;99.90
7000;DHT22;3540;53.242;10.408;2024-01-15T14:00:52;1.20;99.90
7000;DHT22;3540;53.242;10.408;2024-01-15T14:03:17;1.20;99.90
7000;DHT22;3540;53.242;10.408;2024-01-15T14:05:44;1.10;99.90
7000;DHT22;3540;53.242;10.408;2024-01-15T14:08:10;1.20;99.90
7000;DHT22;3540;53.242;10.408;2024-01-15T14:10:36;1.20;99.90
7000;DHT22;3540;53.242;10.408;2024-01-15T14:13:03;1.10;99.90
7000;DHT22;3540;53.242;10.408;2024-01-15T14:15:29;1.10;99.90
7000;DHT22;3540;53.242;10.408;2024-01-15T14:17:54;1.10;99.90
7000;DHT22;3540;53.242;10.408;2024-01-15T14:20:20;1.10;99.90
7000;DHT22;3540;53.242;10.408;2024-01-15T14:22:46;1.10;99.90
7000;DHT22;3540;53.242;10.408;2024-01-15T14:25:11;1.10;99.90
7000;DHT22;3540;53.242;10.408;2024-01-15T14:27:37;1.10;99.90
7000;DHT22;3540;53.242;10.408;2024-01-15T14:30:03;1.00;99.90
7000;DHT22;3540;53.242;10.408;2024-01-15T14:32:31;1.00;99.90
7000;DHT22;3540;53.242;10.408;2024-01-15T14:34:56;1.00;99.90
7000;DHT22;3540;53.242;10.408;2024-01-15T14:37:22;1.10;99.90
7000;DHT22;3540;53.242;10.408;2024-01-15T14:39:48;1.00;99.90
7000;DHT22;3540;53.242;10.408;2024-01-15T14:42:13;1.10;99.90
7000;DHT22;3540;53.242;10.408;2024-01-15T14:44:39;1.10;99.90
7000;DHT22;3540;53.242;10.408;2024-01-15T14:47:06;1.00;99.90
7000;DHT22;3540;53.242;10.408;2024-01-15T14:49:33;1.00;99.90
7000;DHT22;3540;53.242;10.408;2024-01-15T14:51:59;1.00;99.90
7000;DHT22;3540;53.242;10.408;2024-01-15T14:54:24;1.00;99.90
7000;DHT22;3540;53.242;10.408;2024-01-15T14:56:51;1.00;99.90
7000;DHT22;3540;53.242;10.408;2024-01-15T14:59:17;1.00;99.90
7000;DHT22;3540;53.242;10.408;2024-01-15T15:01:42;0.90;99.90
7000;DHT22;3540;53.242;10.408;2024-01-15T15:04:08;0.90;99.90
7000;DHT22;3540;53.242;10.408;2024-01-15T15:06:36;0.90;99.90
7000;DHT22;3540;53.242;10.408;2024-01-15T15:09:02;0.90;99.90
7000;DHT22;3540;53.242;10.408;2024-01-15T15:11:28;0.90;99.90
7000;DHT22;3540;53.242;10.408;2024-01-15T15:13:53;0.90;99.90
7000;DHT22;3540;53.242;10.408;2024-01-15T15:16:19;0.90;99.90
7000;DHT22;3540;53.242;10.408;2024-01-15T15:18:44;0.90;99.90
7000;DHT22;3540;53.242;10.408;2024-01-15T15:21:11;0.80;99.90
7000;DHT22;3540;53.242;10.408;2024-01-15T15:23:37;0.80;99.90
7000;DHT22;3540;53.242;10.408;2024-01-15T15:26:05;0.80;99.90
7000;DHT22;3540;53.242;10.408;2024-01-15T15:28:31;0.80;99.90
7000;DHT22;3540;53.242;10.408;2024-01-15T15:30:57;0.70;99.90
7000;DHT22;3540;53.242;10.408;2024-01-15T15:33:22;0.70;99.90
7000;DHT22;3540;53.242;10.408;2024-01-15T15:35:48;0.70;99.90
7000;DHT22;3540;53.242;10.408;2024-01-15T15:38:17;0.70;99.90
7000;DHT22;3540;53.242;10.408;2024-01-15T15:40:42;0.60;99.90
7000;DHT22;3540;53.242;10.408;2024-01-15T15:43:08;0.60;99.90
7000;DHT22;3540;53.242;10.408;2024-01-15T15:45:34;0.60;99.90
7000;DHT22;3540;53.242;10.408;2024-01-15T15:47:59;0.60;99.90
7000;DHT22;3540;53.242;10.408;2024-01-15T15:50:25;0.60;99.90
7000;DHT22;3540;53.242;10.408;2024-01-15T15:52:51;0.60;99.90
7000;DHT22;3540;53.242;10.408;2024-01-15T15:55:16;0.60;99.90
7000;DHT22;3540;53.242;10.408;2024-01-15T15:57:42;0.60;99.90
7000;DHT22;3540;53.242;10.408;2024-01-15T16:00:08;0.70;99.90
7000;DHT22;3540;53.242;10.408;2024-01-15T16:02:34;0.70;99.90